createdAt,value
2017-05-30T00:00:46.611Z,64.70
2017-05-30T00:03:13.805Z,64.80
2017-05-30T00:05:41.058Z,64.70
2017-05-30T00:08:08.230Z,64.80
2017-05-30T00:10:35.507Z,65.00
2017-05-30T00:13:02.698Z,65.00
2017-05-30T00:15:29.953Z,64.90
2017-05-30T00:17:57.106Z,64.80
2017-05-30T00:20:24.397Z,65.90
2017-05-30T00:22:51.569Z,65.10
2017-05-30T00:25:18.754Z,65.10
2017-05-30T00:27:46.016Z,65.20
2017-05-30T00:30:13.293Z,65.30
2017-05-30T00:32:40.526Z,65.30
2017-05-30T00:35:07.723Z,65.10
2017-05-30T00:37:35.013Z,65.10
2017-05-30T00:40:02.187Z,65.20
2017-05-30T00:42:29.669Z,65.10
2017-05-30T00:44:56.942Z,65.30
2017-05-30T00:47:24.125Z,65.50
2017-05-30T00:49:51.706Z,65.80
2017-05-30T00:52:18.874Z,66.00
2017-05-30T00:54:46.070Z,66.20
2017-05-30T00:57:13.255Z,66.10
2017-05-30T00:59:40.437Z,66.10
2017-05-30T01:02:07.756Z,66.10
2017-05-30T01:04:34.944Z,66.20
2017-05-30T01:07:02.713Z,66.30
2017-05-30T01:09:29.868Z,66.60
2017-05-30T01:11:57.067Z,66.50
2017-05-30T01:14:24.332Z,66.50
2017-05-30T01:16:51.608Z,66.70
2017-05-30T01:19:18.793Z,66.70
2017-05-30T01:21:46.051Z,66.90
2017-05-30T01:24:13.249Z,67.10
2017-05-30T01:26:40.426Z,67.40
2017-05-30T01:29:07.630Z,67.50
2017-05-30T01:31:34.943Z,67.40
2017-05-30T01:34:02.119Z,67.50
2017-05-30T01:36:29.320Z,67.60
2017-05-30T01:38:56.530Z,67.50
2017-05-30T01:41:23.790Z,67.30
2017-05-30T01:43:51.000Z,67.80
2017-05-30T01:46:18.267Z,67.90
2017-05-30T01:48:45.476Z,68.00
2017-05-30T01:51:12.642Z,68.20
2017-05-30T01:53:40.114Z,68.10
2017-05-30T01:56:07.300Z,68.30
2017-05-30T01:58:34.469Z,68.30
2017-05-30T02:01:01.698Z,68.20
2017-05-30T02:03:28.960Z,68.30
2017-05-30T02:05:56.125Z,68.40
2017-05-30T02:08:23.279Z,68.10
2017-05-30T02:10:50.443Z,68.50
2017-05-30T02:13:17.602Z,68.60
2017-05-30T02:15:44.782Z,68.60
2017-05-30T02:18:11.982Z,68.60
2017-05-30T02:20:39.162Z,68.70
2017-05-30T02:23:06.347Z,68.70
2017-05-30T02:25:33.519Z,68.90
2017-05-30T02:28:00.683Z,68.90
2017-05-30T02:30:27.871Z,69.10
2017-05-30T02:32:55.051Z,69.10
2017-05-30T02:35:22.790Z,69.20
2017-05-30T02:37:49.960Z,69.10
2017-05-30T02:40:17.194Z,69.10
2017-05-30T02:42:44.388Z,69.20
2017-05-30T02:45:11.853Z,69.30
2017-05-30T02:47:39.045Z,69.20
2017-05-30T02:50:06.291Z,69.30
2017-05-30T02:52:33.493Z,69.20
2017-05-30T02:55:00.738Z,69.30
2017-05-30T02:57:27.926Z,69.40
2017-05-30T02:59:55.127Z,69.60
2017-05-30T03:02:22.348Z,69.80
2017-05-30T03:04:49.502Z,69.80
2017-05-30T03:07:16.675Z,69.80
2017-05-30T03:09:43.982Z,69.90
2017-05-30T03:12:11.203Z,70.00
2017-05-30T03:14:38.687Z,70.00
2017-05-30T03:17:05.845Z,70.10
2017-05-30T03:19:33.020Z,69.90
2017-05-30T03:22:00.192Z,69.90
2017-05-30T03:24:27.349Z,69.80
2017-05-30T03:26:55.131Z,70.70
2017-05-30T03:29:22.789Z,70.00
2017-05-30T03:31:50.006Z,70.00
2017-05-30T03:34:17.904Z,70.10
2017-05-30T03:36:45.220Z,69.70
2017-05-30T03:39:12.375Z,69.80
2017-05-30T03:41:39.533Z,70.10
2017-05-30T03:44:06.996Z,69.60
2017-05-30T03:46:34.219Z,69.70
2017-05-30T03:49:01.742Z,69.30
2017-05-30T03:51:28.904Z,69.20
2017-05-30T03:53:56.098Z,69.50
2017-05-30T03:56:23.270Z,69.70
2017-05-30T03:58:50.476Z,69.50
2017-05-30T04:01:17.650Z,69.50
2017-05-30T04:03:44.932Z,69.80
2017-05-30T04:06:12.150Z,69.80
2017-05-30T04:08:39.377Z,69.90
2017-05-30T04:11:06.655Z,69.70
2017-05-30T04:13:33.840Z,69.80
2017-05-30T04:16:01.023Z,69.70
2017-05-30T04:18:29.064Z,69.80
2017-05-30T04:20:56.364Z,70.20
2017-05-30T04:23:23.562Z,70.00
2017-05-30T04:25:50.759Z,68.60
2017-05-30T04:28:18.089Z,68.00
2017-05-30T04:30:45.251Z,67.40
2017-05-30T04:33:12.457Z,67.50
2017-05-30T04:35:39.805Z,67.60
2017-05-30T04:38:06.993Z,68.30
2017-05-30T04:40:34.177Z,68.40
2017-05-30T04:43:01.361Z,68.50
2017-05-30T04:45:28.562Z,68.70
2017-05-30T04:47:55.738Z,68.90
2017-05-30T04:50:22.917Z,68.90
2017-05-30T04:52:50.107Z,69.40
2017-05-30T04:55:17.250Z,67.90
2017-05-30T04:57:44.439Z,67.00
2017-05-30T05:00:11.611Z,67.60
2017-05-30T05:02:38.788Z,67.10
2017-05-30T05:05:06.328Z,63.80
2017-05-30T05:07:33.556Z,59.10
2017-05-30T05:10:00.826Z,55.80
2017-05-30T05:12:28.174Z,53.40
2017-05-30T05:14:55.414Z,49.60
2017-05-30T05:17:22.624Z,49.70
2017-05-30T05:19:49.825Z,46.90
2017-05-30T05:22:17.213Z,45.10
2017-05-30T05:24:44.557Z,43.00
2017-05-30T05:27:12.866Z,40.70
2017-05-30T05:29:40.982Z,38.40
2017-05-30T05:32:08.178Z,36.20
2017-05-30T05:34:35.350Z,33.70
2017-05-30T05:37:02.563Z,33.10
2017-05-30T05:39:29.941Z,33.20
2017-05-30T05:41:57.131Z,33.70
2017-05-30T05:44:24.343Z,33.70
2017-05-30T05:46:51.523Z,34.70
2017-05-30T05:49:18.686Z,35.50
2017-05-30T05:51:45.880Z,35.90
2017-05-30T05:54:13.120Z,36.60
2017-05-30T05:56:40.908Z,37.90
2017-05-30T05:59:08.081Z,38.90
2017-05-30T06:01:35.281Z,39.50
2017-05-30T06:04:02.491Z,40.50
2017-05-30T06:06:29.774Z,40.20
2017-05-30T06:08:58.783Z,40.60
2017-05-30T06:11:26.202Z,40.90
2017-05-30T06:13:53.620Z,40.90
2017-05-30T06:16:21.138Z,41.30
2017-05-30T06:18:48.736Z,41.70
2017-05-30T06:21:17.175Z,42.10
2017-05-30T06:23:46.393Z,42.90
2017-05-30T06:26:14.309Z,42.50
2017-05-30T06:28:43.644Z,43.30
2017-05-30T06:31:10.920Z,43.20
2017-05-30T06:33:38.759Z,43.40
2017-05-30T06:36:06.371Z,42.70
2017-05-30T06:38:33.864Z,43.70
2017-05-30T06:41:01.537Z,44.60
2017-05-30T06:43:29.010Z,45.60
2017-05-30T06:45:56.797Z,47.00
2017-05-30T06:48:25.137Z,48.40
2017-05-30T06:50:52.366Z,47.70
2017-05-30T06:53:19.847Z,48.50
2017-05-30T06:55:47.094Z,49.60
2017-05-30T06:58:14.396Z,50.70
2017-05-30T07:00:41.614Z,50.20
2017-05-30T07:03:08.818Z,50.10
2017-05-30T07:05:36.355Z,50.50
2017-05-30T07:08:03.593Z,50.70
2017-05-30T07:10:31.110Z,50.20
2017-05-30T07:12:58.583Z,49.80
2017-05-30T07:15:25.791Z,49.50
2017-05-30T07:17:53.188Z,49.20
2017-05-30T07:20:20.504Z,47.50
2017-05-30T07:22:48.192Z,44.60
2017-05-30T07:25:16.373Z,41.80
2017-05-30T07:27:43.871Z,38.80
2017-05-30T07:30:11.881Z,34.60
2017-05-30T07:32:39.232Z,30.80
2017-05-30T07:35:06.403Z,29.80
2017-05-30T07:37:34.105Z,28.60
2017-05-30T07:40:01.653Z,28.50
2017-05-30T07:42:29.010Z,29.10
2017-05-30T07:44:56.574Z,30.10
2017-05-30T07:47:24.703Z,31.60
2017-05-30T07:49:52.912Z,32.10
2017-05-30T07:52:21.080Z,32.50
2017-05-30T07:54:48.453Z,32.50
2017-05-30T07:57:17.365Z,33.00
2017-05-30T07:59:44.848Z,33.70
2017-05-30T08:02:12.242Z,34.30
2017-05-30T08:04:39.542Z,35.10
2017-05-30T08:07:06.873Z,35.70
2017-05-30T08:09:34.472Z,36.50
2017-05-30T08:12:01.923Z,36.50
2017-05-30T08:14:29.308Z,35.70
2017-05-30T08:16:56.583Z,35.50
2017-05-30T08:19:23.851Z,35.90
2017-05-30T08:21:51.336Z,34.80
2017-05-30T08:24:18.712Z,34.10
2017-05-30T08:26:45.990Z,32.40
2017-05-30T08:29:13.213Z,31.80
2017-05-30T08:31:40.596Z,31.80
2017-05-30T08:34:07.765Z,31.00
2017-05-30T08:36:34.952Z,31.60
2017-05-30T08:39:02.883Z,30.60
2017-05-30T08:41:30.146Z,30.00
2017-05-30T08:43:57.427Z,29.90
2017-05-30T08:46:24.816Z,28.50
2017-05-30T08:48:52.000Z,28.90
2017-05-30T08:51:19.186Z,29.50
2017-05-30T08:53:46.415Z,29.20
2017-05-30T08:56:13.942Z,29.70
2017-05-30T08:58:41.099Z,29.50
2017-05-30T09:03:24.104Z,30.00
2017-05-30T09:05:51.280Z,29.70
2017-05-30T09:08:18.425Z,29.30
2017-05-30T09:10:45.988Z,29.90
2017-05-30T09:13:13.153Z,30.40
2017-05-30T09:15:40.332Z,30.00
2017-05-30T09:18:07.624Z,30.00
2017-05-30T09:20:34.853Z,29.50
2017-05-30T09:23:02.052Z,29.20
2017-05-30T09:25:29.262Z,29.70
2017-05-30T09:27:56.434Z,31.00
2017-05-30T09:30:23.972Z,30.30
2017-05-30T09:32:51.172Z,29.90
2017-05-30T09:35:18.318Z,30.00
2017-05-30T09:37:45.523Z,30.50
2017-05-30T09:40:12.743Z,30.60
2017-05-30T09:42:39.897Z,30.60
2017-05-30T09:45:07.413Z,30.90
2017-05-30T09:47:34.575Z,31.60
2017-05-30T09:50:01.812Z,31.80
2017-05-30T09:52:29.010Z,31.00
2017-05-30T09:54:56.176Z,31.40
2017-05-30T09:57:23.375Z,30.80
2017-05-30T09:59:50.552Z,31.10
2017-05-30T10:02:17.764Z,31.70
2017-05-30T10:04:44.981Z,32.80
2017-05-30T10:07:12.165Z,33.00
2017-05-30T10:09:39.350Z,32.90
2017-05-30T10:12:06.526Z,33.20
2017-05-30T10:14:33.786Z,34.00
2017-05-30T10:17:00.978Z,34.80
2017-05-30T10:19:28.272Z,35.20
2017-05-30T10:21:55.431Z,35.60
2017-05-30T10:24:22.659Z,35.90
2017-05-30T10:26:49.835Z,36.90
2017-05-30T10:29:16.999Z,36.70
2017-05-30T10:31:44.216Z,36.40
2017-05-30T10:34:11.427Z,36.90
2017-05-30T10:36:38.629Z,36.40
2017-05-30T10:39:05.813Z,36.70
2017-05-30T10:41:33.472Z,36.80
2017-05-30T10:44:00.657Z,37.40
2017-05-30T10:46:28.164Z,37.20
2017-05-30T10:48:55.353Z,37.80
2017-05-30T10:51:25.838Z,37.70
2017-05-30T10:53:52.998Z,38.40
2017-05-30T10:56:20.174Z,38.20
2017-05-30T10:58:47.398Z,38.80
2017-05-30T11:01:14.578Z,38.90
2017-05-30T11:03:41.756Z,38.70
2017-05-30T11:06:08.951Z,39.20
2017-05-30T11:08:37.094Z,39.10
2017-05-30T11:11:04.294Z,39.00
2017-05-30T11:13:31.542Z,38.10
2017-05-30T11:15:58.880Z,38.60
2017-05-30T11:18:26.072Z,38.60
2017-05-30T11:20:53.690Z,38.80
2017-05-30T11:23:20.924Z,38.40
2017-05-30T11:25:48.217Z,38.10
2017-05-30T11:28:15.419Z,38.50
2017-05-30T11:30:42.589Z,38.60
2017-05-30T11:33:09.789Z,38.30
2017-05-30T11:35:37.094Z,38.10
2017-05-30T11:38:04.387Z,38.70
2017-05-30T11:40:31.723Z,37.10
2017-05-30T11:42:59.342Z,37.00
2017-05-30T11:45:27.231Z,37.00
2017-05-30T11:47:54.493Z,37.40
2017-05-30T11:50:23.029Z,37.00
2017-05-30T11:52:50.236Z,36.80
2017-05-30T11:55:17.560Z,36.70
2017-05-30T11:57:44.932Z,35.80
2017-05-30T12:00:12.820Z,36.00
2017-05-30T12:02:40.096Z,35.40
2017-05-30T12:05:07.574Z,34.50
2017-05-30T12:07:34.772Z,34.90
2017-05-30T12:10:02.123Z,34.90
2017-05-30T12:12:29.499Z,34.00
2017-05-30T12:14:57.897Z,34.10
2017-05-30T12:17:41.331Z,34.70
2017-05-30T12:20:08.608Z,35.00
2017-05-30T12:22:35.982Z,34.30
2017-05-30T12:25:03.202Z,35.20
2017-05-30T12:27:30.397Z,35.30
2017-05-30T12:29:57.617Z,35.80
2017-05-30T12:32:24.820Z,34.40
2017-05-30T12:34:52.050Z,34.90
2017-05-30T12:37:19.254Z,34.80
2017-05-30T12:39:46.595Z,36.20
2017-05-30T12:42:13.790Z,35.30
2017-05-30T12:44:41.452Z,34.80
2017-05-30T12:47:24.069Z,34.70
2017-05-30T12:49:51.483Z,34.40
2017-05-30T12:52:18.823Z,34.00
2017-05-30T12:54:46.011Z,34.10
2017-05-30T12:57:13.229Z,34.60
2017-05-30T12:59:40.423Z,34.40
2017-05-30T13:02:07.682Z,34.50
2017-05-30T13:04:34.990Z,31.90
2017-05-30T13:07:02.223Z,30.90
2017-05-30T13:09:29.537Z,29.80
2017-05-30T13:11:56.821Z,29.50
2017-05-30T13:14:24.061Z,29.50
2017-05-30T13:16:51.301Z,29.80
2017-05-30T13:19:18.486Z,30.00
2017-05-30T13:21:45.686Z,30.20
2017-05-30T13:24:12.858Z,30.30
2017-05-30T13:26:40.026Z,30.20
2017-05-30T13:29:07.222Z,29.70
2017-05-30T13:31:34.430Z,30.20
2017-05-30T13:34:01.642Z,32.10
2017-05-30T13:36:28.814Z,31.20
2017-05-30T13:38:56.013Z,30.30
2017-05-30T13:41:23.287Z,31.10
2017-05-30T13:43:50.501Z,32.00
2017-05-30T13:46:17.680Z,31.60
2017-05-30T13:48:44.870Z,32.40
2017-05-30T13:51:12.080Z,32.40
2017-05-30T13:53:39.286Z,32.50
2017-05-30T13:56:07.406Z,32.50
2017-05-30T13:58:34.591Z,32.50
2017-05-30T14:01:01.779Z,33.20
2017-05-30T14:03:29.062Z,33.20
2017-05-30T14:05:56.273Z,33.80
2017-05-30T14:08:23.466Z,34.60
2017-05-30T14:10:50.646Z,35.40
2017-05-30T14:13:17.806Z,36.40
2017-05-30T14:15:45.113Z,37.00
2017-05-30T14:18:12.380Z,37.30
2017-05-30T14:20:39.551Z,38.30
2017-05-30T14:23:06.738Z,37.70
2017-05-30T14:25:34.429Z,36.90
2017-05-30T14:28:01.592Z,36.10
2017-05-30T14:30:28.770Z,36.90
2017-05-30T14:32:55.987Z,36.30
2017-05-30T14:35:23.224Z,36.30
2017-05-30T14:37:50.398Z,36.20
2017-05-30T14:40:17.609Z,36.50
2017-05-30T14:42:44.775Z,36.50
2017-05-30T14:45:12.010Z,36.30
2017-05-30T14:47:39.180Z,36.00
2017-05-30T14:50:09.933Z,36.70
2017-05-30T14:52:37.108Z,36.90
2017-05-30T14:55:04.434Z,37.50
2017-05-30T14:57:31.761Z,37.80
2017-05-30T14:59:59.236Z,38.80
2017-05-30T15:02:26.612Z,39.30
2017-05-30T15:04:53.884Z,39.60
2017-05-30T15:07:21.128Z,39.80
2017-05-30T15:09:48.740Z,40.30
2017-05-30T15:12:15.934Z,39.80
2017-05-30T15:14:43.290Z,40.10
2017-05-30T15:17:10.503Z,40.90
2017-05-30T15:19:39.852Z,41.60
2017-05-30T15:22:07.062Z,42.10
2017-05-30T15:24:34.329Z,42.70
2017-05-30T15:27:02.219Z,42.90
2017-05-30T15:29:29.417Z,43.20
2017-05-30T15:31:56.616Z,43.60
2017-05-30T15:34:23.806Z,42.70
2017-05-30T15:36:51.038Z,43.00
2017-05-30T15:39:18.198Z,43.00
2017-05-30T15:41:45.408Z,43.30
2017-05-30T15:44:12.581Z,43.80
2017-05-30T15:46:41.548Z,44.10
2017-05-30T15:49:09.027Z,44.00
2017-05-30T15:51:36.219Z,44.10
2017-05-30T15:54:03.417Z,43.80
2017-05-30T15:56:30.737Z,43.70
2017-05-30T15:58:58.010Z,43.50
2017-05-30T16:01:25.287Z,43.30
2017-05-30T16:03:53.021Z,43.20
2017-05-30T16:06:20.243Z,43.40
2017-05-30T16:08:47.590Z,43.80
2017-05-30T16:11:14.785Z,43.70
2017-05-30T16:13:41.962Z,44.20
2017-05-30T16:16:09.240Z,44.50
2017-05-30T16:18:36.514Z,44.40
2017-05-30T16:21:03.768Z,45.00
2017-05-30T16:23:31.061Z,45.10
2017-05-30T16:25:58.232Z,45.80
2017-05-30T16:28:25.390Z,45.80
2017-05-30T16:30:52.637Z,45.90
2017-05-30T16:33:19.832Z,45.80
2017-05-30T16:35:47.034Z,46.10
2017-05-30T16:38:14.211Z,46.30
2017-05-30T16:40:41.475Z,46.60
2017-05-30T16:43:08.654Z,46.90
2017-05-30T16:45:35.833Z,47.30
2017-05-30T16:48:03.048Z,47.50
2017-05-30T16:50:30.204Z,47.70
2017-05-30T16:52:57.535Z,44.40
2017-05-30T16:55:24.745Z,40.20
2017-05-30T16:57:52.482Z,39.60
2017-05-30T17:00:19.680Z,40.80
2017-05-30T17:02:47.042Z,41.70
2017-05-30T17:05:14.232Z,43.10
2017-05-30T17:07:41.593Z,45.50
2017-05-30T17:10:08.831Z,47.90
2017-05-30T17:12:36.040Z,48.80
2017-05-30T17:15:03.281Z,49.80
2017-05-30T17:17:30.484Z,50.90
2017-05-30T17:19:57.741Z,53.50
2017-05-30T17:22:24.985Z,55.20
2017-05-30T17:24:53.132Z,56.30
2017-05-30T17:27:20.399Z,58.30
2017-05-30T17:29:48.798Z,58.90
2017-05-30T17:32:16.008Z,59.10
2017-05-30T17:34:43.225Z,60.30
2017-05-30T17:37:10.471Z,59.10
2017-05-30T17:39:37.693Z,60.20
2017-05-30T17:42:05.172Z,59.40
2017-05-30T17:44:32.410Z,60.30
2017-05-30T17:46:59.610Z,61.20
2017-05-30T17:49:26.994Z,61.30
2017-05-30T17:51:54.881Z,63.90
2017-05-30T17:54:22.265Z,63.50
2017-05-30T17:56:49.425Z,64.10
2017-05-30T17:59:17.089Z,64.00
2017-05-30T18:01:44.388Z,64.20
2017-05-30T18:04:11.636Z,65.50
2017-05-30T18:06:38.940Z,66.00
2017-05-30T18:09:06.213Z,66.30
2017-05-30T18:11:33.409Z,65.50
2017-05-30T18:14:00.625Z,65.80
2017-05-30T18:16:28.412Z,65.80
2017-05-30T18:21:32.487Z,65.20
2017-05-30T18:23:59.688Z,65.10
2017-05-30T18:26:26.950Z,66.80
2017-05-30T18:28:54.400Z,67.60
2017-05-30T18:31:22.308Z,67.20
2017-05-30T18:33:49.543Z,67.60
2017-05-30T18:36:16.713Z,67.80
2017-05-30T18:38:43.962Z,66.90
2017-05-30T18:41:11.316Z,67.60
2017-05-30T18:43:38.688Z,68.40
2017-05-30T18:46:06.474Z,68.00
2017-05-30T18:48:33.681Z,68.20
2017-05-30T18:51:00.875Z,67.80
2017-05-30T18:53:28.128Z,68.20
2017-05-30T18:55:55.474Z,68.90
2017-05-30T18:58:22.658Z,68.70
2017-05-30T19:00:49.979Z,69.00
2017-05-30T19:03:17.294Z,69.30
2017-05-30T19:05:44.565Z,70.00
2017-05-30T19:08:11.839Z,71.20
2017-05-30T19:10:39.111Z,71.20
2017-05-30T19:13:06.324Z,70.70
2017-05-30T19:15:33.560Z,71.30
2017-05-30T19:18:00.740Z,70.70
2017-05-30T19:20:27.946Z,70.80
2017-05-30T19:22:55.121Z,71.40
2017-05-30T19:25:22.309Z,71.20
2017-05-30T19:27:49.510Z,71.70
2017-05-30T19:30:16.729Z,72.00
2017-05-30T19:32:44.222Z,72.30
2017-05-30T19:35:13.698Z,72.50
2017-05-30T19:37:41.692Z,72.60
2017-05-30T19:40:08.990Z,72.80
2017-05-30T19:42:36.952Z,73.00
2017-05-30T19:45:04.144Z,73.30
2017-05-30T19:47:31.506Z,73.10
2017-05-30T19:49:58.733Z,72.90
2017-05-30T19:52:25.989Z,72.00
2017-05-30T19:54:53.326Z,71.90
2017-05-30T19:57:20.700Z,71.90
2017-05-30T19:59:48.425Z,71.90
2017-05-30T20:02:17.016Z,72.00
2017-05-30T20:04:45.734Z,71.90
2017-05-30T20:07:12.920Z,72.00
2017-05-30T20:09:40.333Z,71.90
2017-05-30T20:12:07.552Z,73.20
2017-05-30T20:14:34.764Z,72.30
2017-05-30T20:17:02.066Z,72.60
2017-05-30T20:19:29.342Z,72.70
2017-05-30T20:21:56.556Z,72.80
2017-05-30T20:24:23.990Z,72.60
2017-05-30T20:26:51.210Z,72.60
2017-05-30T20:29:18.541Z,72.60
2017-05-30T20:31:45.775Z,72.80
2017-05-30T20:34:13.191Z,73.00
2017-05-30T20:36:40.378Z,73.00
2017-05-30T20:39:07.642Z,72.80
2017-05-30T20:41:34.834Z,73.00
2017-05-30T20:44:02.024Z,73.30
2017-05-30T20:46:29.214Z,73.70
2017-05-30T20:48:56.530Z,73.40
2017-05-30T20:51:23.697Z,73.90
2017-05-30T20:53:50.927Z,74.00
2017-05-30T20:56:18.463Z,74.00
2017-05-30T20:58:45.671Z,74.10
2017-05-30T21:01:12.837Z,73.90
2017-05-30T21:03:40.356Z,73.90
2017-05-30T21:06:07.654Z,73.30
2017-05-30T21:08:34.930Z,73.70
2017-05-30T21:11:02.474Z,73.90
2017-05-30T21:13:30.272Z,74.10
2017-05-30T21:15:57.573Z,74.20
2017-05-30T21:18:24.741Z,73.90
2017-05-30T21:20:51.919Z,74.00
2017-05-30T21:23:19.092Z,74.10
2017-05-30T21:25:46.320Z,74.40
2017-05-30T21:28:13.742Z,74.50
2017-05-30T21:30:41.075Z,74.50
2017-05-30T21:33:08.301Z,74.30
2017-05-30T21:35:35.477Z,74.20
2017-05-30T21:38:02.649Z,74.70
2017-05-30T21:40:29.857Z,74.80
2017-05-30T21:42:57.078Z,74.80
2017-05-30T21:45:24.278Z,74.80
2017-05-30T21:47:51.442Z,75.00
2017-05-30T21:50:18.602Z,75.10
2017-05-30T21:52:45.778Z,75.10
2017-05-30T21:55:13.350Z,75.00
2017-05-30T21:57:40.825Z,74.70
2017-05-30T22:00:08.105Z,74.80
2017-05-30T22:02:35.563Z,74.70
2017-05-30T22:05:02.036Z,74.70
2017-05-30T22:07:29.289Z,75.20
2017-05-30T22:09:56.468Z,75.40
2017-05-30T22:12:23.652Z,75.50
2017-05-30T22:14:50.873Z,75.40
2017-05-30T22:17:18.077Z,75.50
2017-05-30T22:19:45.221Z,75.80
2017-05-30T22:22:12.417Z,75.80
2017-05-30T22:24:39.730Z,76.00
2017-05-30T22:27:06.992Z,76.20
2017-05-30T22:29:34.208Z,76.50
2017-05-30T22:32:01.484Z,76.40
2017-05-30T22:34:28.656Z,76.60
2017-05-30T22:36:55.836Z,76.80
2017-05-30T22:39:23.394Z,76.70
2017-05-30T22:41:50.537Z,77.00
2017-05-30T22:44:17.811Z,77.20
2017-05-30T22:46:45.079Z,77.40
2017-05-30T22:51:46.214Z,77.20
2017-05-30T22:54:13.362Z,77.20
2017-05-30T22:56:40.524Z,77.20
2017-05-30T22:59:08.115Z,77.40
2017-05-30T23:01:35.263Z,77.60
2017-05-30T23:04:02.411Z,77.80
2017-05-30T23:06:29.579Z,78.00
2017-05-30T23:08:56.794Z,78.20
2017-05-30T23:11:23.952Z,78.30
2017-05-30T23:13:51.112Z,78.30
2017-05-30T23:16:18.288Z,78.50
2017-05-30T23:18:45.507Z,78.50
2017-05-30T23:21:13.225Z,78.60
2017-05-30T23:23:40.613Z,78.80
2017-05-30T23:26:07.801Z,78.90
2017-05-30T23:28:35.437Z,78.90
2017-05-30T23:31:03.189Z,79.00
2017-05-30T23:33:30.362Z,79.10
2017-05-30T23:35:57.568Z,79.30
2017-05-30T23:38:24.747Z,79.40
2017-05-30T23:40:51.950Z,80.10
2017-05-30T23:43:19.303Z,79.50
2017-05-30T23:45:46.477Z,79.60
2017-05-30T23:48:13.655Z,79.70
2017-05-30T23:50:40.823Z,79.70
2017-05-30T23:53:08.015Z,79.80
2017-05-30T23:55:35.212Z,79.90
2017-05-30T23:58:02.572Z,80.00
